createdAt,value
2022-09-23T00:01:20.801Z,13.85
2022-09-23T00:03:49.057Z,13.50
2022-09-23T00:06:24.106Z,13.68
2022-09-23T00:08:52.347Z,14.07
2022-09-23T00:11:25.557Z,13.95
2022-09-23T00:13:57.223Z,14.90
2022-09-23T00:16:28.995Z,14.18
2022-09-23T00:18:56.582Z,14.73
2022-09-23T00:21:25.225Z,14.75
2022-09-23T00:23:52.287Z,14.00
2022-09-23T00:26:21.923Z,14.88
2022-09-23T00:28:50.710Z,14.13
2022-09-23T00:31:25.859Z,14.13
2022-09-23T00:34:01.257Z,14.43
2022-09-23T00:36:29.626Z,16.63
2022-09-23T00:38:57.117Z,15.48
2022-09-23T00:41:25.795Z,13.60
2022-09-23T00:43:59.583Z,14.63
2022-09-23T00:46:40.449Z,14.93
2022-09-23T00:49:20.509Z,14.55
2022-09-23T00:51:55.415Z,14.50
2022-09-23T00:54:24.723Z,14.90
2022-09-23T00:56:51.986Z,14.55
2022-09-23T00:59:20.612Z,14.80
2022-09-23T01:01:49.627Z,14.90
2022-09-23T01:04:16.836Z,14.52
2022-09-23T01:06:44.379Z,14.85
2022-09-23T01:09:11.351Z,14.98
2022-09-23T01:12:00.174Z,14.10
2022-09-23T01:14:38.672Z,14.27
2022-09-23T01:17:15.437Z,14.63
2022-09-23T01:20:31.850Z,14.48
2022-09-23T01:23:29.347Z,14.48
2022-09-23T01:26:11.505Z,14.95
2022-09-23T01:29:17.848Z,14.70
2022-09-23T01:32:37.078Z,14.98
2022-09-23T01:35:13.397Z,15.48
2022-09-23T01:38:24.594Z,13.70
2022-09-23T01:41:22.562Z,14.77
2022-09-23T01:43:58.137Z,14.70
2022-09-23T01:46:34.345Z,15.55
2022-09-23T01:49:31.454Z,14.80
2022-09-23T01:52:15.884Z,14.38
2022-09-23T01:54:55.128Z,16.02
2022-09-23T01:57:32.540Z,16.80
2022-09-23T02:00:12.262Z,15.00
2022-09-23T02:03:00.365Z,14.90
2022-09-23T02:05:40.732Z,16.13
2022-09-23T02:08:56.528Z,15.38
2022-09-23T02:11:23.969Z,14.85
2022-09-23T02:13:59.980Z,16.63
2022-09-23T02:19:09.690Z,16.20
2022-09-23T02:21:44.861Z,16.20
2022-09-23T02:24:17.441Z,15.20
2022-09-23T02:26:53.976Z,14.93
2022-09-23T02:29:39.054Z,15.48
2022-09-23T02:32:18.530Z,16.48
2022-09-23T02:35:05.795Z,15.93
2022-09-23T02:38:26.644Z,15.13
2022-09-23T02:41:10.741Z,15.55
2022-09-23T02:43:50.247Z,16.42
2022-09-23T02:46:17.867Z,14.95
2022-09-23T02:48:53.642Z,15.68
2022-09-23T02:51:20.976Z,15.88
2022-09-23T02:53:48.159Z,15.68
2022-09-23T02:56:21.016Z,15.90
2022-09-23T02:58:51.872Z,15.60
2022-09-23T03:02:04.564Z,15.38
2022-09-23T03:04:47.406Z,16.15
2022-09-23T03:07:21.637Z,15.98
2022-09-23T03:10:03.964Z,17.02
2022-09-23T03:13:01.811Z,15.43
2022-09-23T03:15:46.581Z,16.70
2022-09-23T03:18:20.373Z,17.02
2022-09-23T03:21:03.170Z,17.40
2022-09-23T03:23:37.957Z,16.88
2022-09-23T03:26:18.848Z,17.63
2022-09-23T03:28:46.490Z,15.93
2022-09-23T03:31:15.300Z,16.60
2022-09-23T03:33:52.949Z,16.30
2022-09-23T03:36:51.538Z,16.58
2022-09-23T03:39:29.416Z,15.98
2022-09-23T03:42:02.231Z,16.23
2022-09-23T03:44:29.712Z,16.30
2022-09-23T03:47:02.280Z,16.73
2022-09-23T03:49:34.914Z,16.95
2022-09-23T03:52:03.434Z,16.13
2022-09-23T03:54:30.977Z,16.10
2022-09-23T03:56:58.937Z,16.45
2022-09-23T03:59:27.189Z,15.88
2022-09-23T04:01:55.583Z,16.58
2022-09-23T04:04:22.680Z,15.95
2022-09-23T04:06:49.873Z,15.88
2022-09-23T04:09:16.939Z,15.57
2022-09-23T04:11:43.902Z,15.60
2022-09-23T04:14:12.105Z,16.25
2022-09-23T04:16:39.561Z,16.40
2022-09-23T04:19:11.324Z,16.27
2022-09-23T04:21:39.195Z,16.17
2022-09-23T04:24:06.601Z,16.95
2022-09-23T04:26:34.706Z,16.75
2022-09-23T04:29:02.393Z,16.70
2022-09-23T04:31:29.476Z,17.40
2022-09-23T04:33:56.914Z,15.88
2022-09-23T04:36:24.222Z,15.10
2022-09-23T04:38:51.661Z,16.48
2022-09-23T04:41:19.860Z,17.10
2022-09-23T04:43:47.064Z,16.13
2022-09-23T04:46:16.245Z,16.77
2022-09-23T04:48:43.971Z,16.83
2022-09-23T04:51:14.705Z,16.92
2022-09-23T04:53:45.560Z,15.55
2022-09-23T04:56:23.288Z,16.73
2022-09-23T04:58:50.949Z,16.65
2022-09-23T05:01:26.976Z,16.27
2022-09-23T05:03:57.939Z,15.75
2022-09-23T05:06:25.491Z,15.77
2022-09-23T05:08:57.833Z,15.40
2022-09-23T05:11:26.346Z,14.50
2022-09-23T05:13:54.525Z,15.52
2022-09-23T05:16:23.444Z,14.80
2022-09-23T05:18:52.461Z,15.60
2022-09-23T05:21:22.737Z,15.75
2022-09-23T05:23:55.499Z,15.07
2022-09-23T05:26:26.422Z,15.68
2022-09-23T05:28:54.242Z,15.10
2022-09-23T05:31:24.156Z,15.75
2022-09-23T05:34:02.072Z,15.20
2022-09-23T05:36:35.726Z,14.82
2022-09-23T05:39:06.507Z,15.45
2022-09-23T05:41:34.008Z,14.98
2022-09-23T05:44:01.701Z,14.07
2022-09-23T05:46:31.225Z,15.02
2022-09-23T05:49:08.106Z,15.05
2022-09-23T05:51:38.518Z,15.70
2022-09-23T05:54:06.088Z,13.90
2022-09-23T05:56:34.827Z,15.30
2022-09-23T05:59:04.092Z,15.45
2022-09-23T06:01:35.142Z,15.30
2022-09-23T06:04:04.929Z,13.88
2022-09-23T06:06:41.466Z,14.38
2022-09-23T06:09:16.188Z,14.70
2022-09-23T06:11:43.417Z,15.23
2022-09-23T06:14:13.801Z,13.80
2022-09-23T06:16:40.969Z,15.00
2022-09-23T06:19:08.115Z,13.80
2022-09-23T06:21:38.545Z,13.95
2022-09-23T06:24:07.022Z,13.98
2022-09-23T06:26:36.317Z,14.52
2022-09-23T06:29:09.903Z,13.65
2022-09-23T06:31:37.420Z,13.32
2022-09-23T06:34:11.515Z,13.00
2022-09-23T06:36:44.309Z,12.85
2022-09-23T06:39:16.715Z,12.35
2022-09-23T06:41:45.190Z,12.18
2022-09-23T06:44:14.220Z,12.52
2022-09-23T06:46:41.579Z,12.38
2022-09-23T06:49:08.839Z,11.40
2022-09-23T06:51:35.962Z,11.38
2022-09-23T06:54:03.463Z,11.82
2022-09-23T06:56:33.636Z,11.65
2022-09-23T06:59:05.582Z,10.88
2022-09-23T07:01:33.404Z,11.20
2022-09-23T07:04:01.731Z,10.90
2022-09-23T07:06:29.030Z,9.98
2022-09-23T07:08:56.076Z,10.48
2022-09-23T07:11:23.363Z,10.43
2022-09-23T07:13:50.525Z,10.50
2022-09-23T07:16:17.875Z,10.50
2022-09-23T07:18:45.700Z,10.73
2022-09-23T07:21:19.513Z,10.77
2022-09-23T07:23:50.350Z,10.73
2022-09-23T07:26:19.475Z,9.60
2022-09-23T07:28:46.720Z,10.23
2022-09-23T07:31:25.889Z,10.05
2022-09-23T07:33:57.945Z,9.88
2022-09-23T07:36:27.898Z,21.13
2022-09-23T07:39:00.574Z,11.45
2022-09-23T07:41:28.919Z,9.80
2022-09-23T07:43:58.925Z,10.07
2022-09-23T07:46:29.987Z,9.40
2022-09-23T07:48:57.897Z,10.15
2022-09-23T07:51:38.204Z,9.68
2022-09-23T07:54:13.529Z,9.07
2022-09-23T07:56:41.871Z,12.35
2022-09-23T07:59:15.315Z,11.50
2022-09-23T08:01:48.155Z,10.10
2022-09-23T08:04:20.176Z,9.50
2022-09-23T08:06:54.335Z,9.82
2022-09-23T08:09:28.746Z,9.70
2022-09-23T08:11:56.121Z,9.63
2022-09-23T08:14:23.439Z,10.18
2022-09-23T08:16:52.245Z,10.30
2022-09-23T08:19:19.478Z,9.90
2022-09-23T08:21:47.575Z,9.85
2022-09-23T08:24:18.958Z,9.63
2022-09-23T08:26:48.068Z,9.77
2022-09-23T08:29:17.744Z,9.68
2022-09-23T08:31:45.266Z,8.98
2022-09-23T08:34:12.527Z,9.27
2022-09-23T08:36:39.966Z,9.30
2022-09-23T08:39:07.362Z,8.50
2022-09-23T08:41:34.646Z,8.48
2022-09-23T08:44:26.626Z,8.88
2022-09-23T08:47:51.866Z,8.57
2022-09-23T08:50:22.992Z,8.70
2022-09-23T08:53:01.671Z,8.45
2022-09-23T08:55:50.934Z,9.00
2022-09-23T08:59:00.894Z,8.70
2022-09-23T09:01:52.617Z,8.23
2022-09-23T09:04:46.993Z,8.13
2022-09-23T09:10:22.502Z,8.30
2022-09-23T09:13:35.800Z,8.13
2022-09-23T09:17:01.074Z,8.02
2022-09-23T09:19:54.184Z,7.93
2022-09-23T09:23:00.404Z,7.57
2022-09-23T09:25:38.450Z,8.15
2022-09-23T09:28:26.556Z,8.05
2022-09-23T09:31:02.538Z,8.80
2022-09-23T09:36:40.534Z,7.72
2022-09-23T09:39:13.974Z,8.20
2022-09-23T09:41:47.526Z,8.00
2022-09-23T09:44:48.522Z,7.82
2022-09-23T09:47:33.450Z,8.20
2022-09-23T09:50:15.607Z,7.85
2022-09-23T09:52:43.242Z,7.20
2022-09-23T09:55:13.023Z,8.02
2022-09-23T09:57:48.035Z,7.20
2022-09-23T10:00:27.679Z,8.13
2022-09-23T10:02:59.403Z,7.38
2022-09-23T10:05:28.256Z,8.25
2022-09-23T10:07:55.608Z,7.50
2022-09-23T10:10:33.899Z,7.60
2022-09-23T10:13:16.085Z,7.63
2022-09-23T10:15:45.361Z,7.63
2022-09-23T10:18:39.267Z,7.93
2022-09-23T10:21:13.218Z,8.02
2022-09-23T10:23:47.673Z,7.68
2022-09-23T10:26:18.410Z,7.68
2022-09-23T10:28:55.569Z,8.07
2022-09-23T10:31:30.139Z,8.40
2022-09-23T10:34:24.007Z,7.85
2022-09-23T10:37:28.009Z,8.00
2022-09-23T10:40:13.487Z,7.45
2022-09-23T10:43:27.024Z,8.23
2022-09-23T10:46:22.086Z,7.82
2022-09-23T10:49:44.028Z,8.13
2022-09-23T10:52:27.086Z,7.75
2022-09-23T10:55:01.833Z,7.63
2022-09-23T10:57:49.601Z,8.20
2022-09-23T11:00:51.794Z,8.35
2022-09-23T11:04:02.102Z,7.57
2022-09-23T11:06:32.198Z,7.78
2022-09-23T11:09:33.013Z,8.02
2022-09-23T11:12:38.113Z,8.07
2022-09-23T11:15:26.733Z,7.80
2022-09-23T11:18:11.844Z,7.95
2022-09-23T11:21:09.327Z,8.43
2022-09-23T11:24:17.706Z,8.45
2022-09-23T11:27:41.360Z,8.35
2022-09-23T11:30:17.099Z,8.48
2022-09-23T11:33:13.867Z,8.10
2022-09-23T11:35:49.109Z,8.75
2022-09-23T11:38:30.257Z,8.50
2022-09-23T11:41:11.665Z,8.45
2022-09-23T11:43:40.856Z,8.77
2022-09-23T11:46:59.878Z,8.07
2022-09-23T11:49:50.317Z,9.27
2022-09-23T11:52:41.654Z,8.25
2022-09-23T11:55:32.317Z,8.93
2022-09-23T11:58:25.612Z,8.70
2022-09-23T12:01:07.635Z,8.32
2022-09-23T12:04:21.068Z,8.75
2022-09-23T12:07:10.348Z,8.65
2022-09-23T12:10:08.347Z,9.13
2022-09-23T12:12:56.826Z,8.50
2022-09-23T12:16:17.816Z,8.95
2022-09-23T12:19:30.895Z,8.77
2022-09-23T12:22:40.193Z,8.40
2022-09-23T12:25:07.277Z,8.20
2022-09-23T12:27:48.090Z,8.20
2022-09-23T12:30:23.399Z,8.15
2022-09-23T12:32:51.280Z,7.82
2022-09-23T12:35:32.096Z,8.38
2022-09-23T12:38:01.437Z,8.35
2022-09-23T12:40:40.790Z,8.35
2022-09-23T12:43:27.277Z,8.77
2022-09-23T12:48:21.433Z,8.50
2022-09-23T12:51:19.662Z,9.15
2022-09-23T12:54:14.213Z,9.05
2022-09-23T12:56:42.116Z,9.15
2022-09-23T12:59:33.071Z,8.82
2022-09-23T13:02:33.434Z,9.23
2022-09-23T13:05:42.055Z,9.48
2022-09-23T13:08:16.546Z,9.55
2022-09-23T13:11:06.244Z,9.25
2022-09-23T13:13:44.643Z,8.82
2022-09-23T13:16:37.940Z,9.20
2022-09-23T13:19:09.125Z,9.48
2022-09-23T13:21:45.813Z,9.18
2022-09-23T13:24:33.558Z,9.30
2022-09-23T13:27:12.172Z,9.43
2022-09-23T13:30:23.624Z,9.20
2022-09-23T13:33:29.681Z,9.90
2022-09-23T13:36:02.701Z,9.15
2022-09-23T13:38:32.572Z,9.30
2022-09-23T13:41:05.422Z,9.48
2022-09-23T13:43:42.559Z,9.57
2022-09-23T13:46:14.477Z,10.43
2022-09-23T13:48:45.407Z,9.32
2022-09-23T13:51:27.156Z,9.77
2022-09-23T13:53:57.780Z,9.05
2022-09-23T13:56:28.538Z,9.80
2022-09-23T13:59:31.613Z,9.35
2022-09-23T14:02:10.550Z,9.18
2022-09-23T14:04:38.519Z,9.27
2022-09-23T14:07:08.046Z,9.77
2022-09-23T14:09:37.104Z,9.02
2022-09-23T14:12:06.870Z,8.80
2022-09-23T14:14:37.098Z,9.57
2022-09-23T14:17:06.535Z,9.50
2022-09-23T14:19:35.401Z,10.02
2022-09-23T14:22:02.686Z,9.60
2022-09-23T14:24:33.564Z,9.30
2022-09-23T14:27:06.625Z,9.05
2022-09-23T14:29:52.233Z,9.68
2022-09-23T14:32:26.794Z,9.02
2022-09-23T14:34:59.681Z,9.18
2022-09-23T14:37:47.892Z,8.90
2022-09-23T14:40:31.091Z,8.95
2022-09-23T14:43:26.293Z,8.63
2022-09-23T14:45:58.984Z,8.68
2022-09-23T14:48:34.137Z,9.00
2022-09-23T14:51:06.218Z,9.80
2022-09-23T14:53:42.508Z,8.65
2022-09-23T14:56:14.937Z,8.65
2022-09-23T14:58:57.676Z,8.35
2022-09-23T15:01:30.636Z,8.15
2022-09-23T15:04:13.659Z,8.30
2022-09-23T15:07:16.386Z,9.10
2022-09-23T15:09:45.434Z,8.95
2022-09-23T15:12:20.694Z,8.65
2022-09-23T15:14:58.505Z,9.00
2022-09-23T15:17:35.158Z,8.82
2022-09-23T15:20:23.072Z,8.50
2022-09-23T15:22:55.172Z,9.35
2022-09-23T15:25:41.749Z,9.05
2022-09-23T15:28:08.614Z,9.30
2022-09-23T15:30:38.141Z,9.45
2022-09-23T15:33:06.629Z,9.07
2022-09-23T15:35:34.130Z,8.88
2022-09-23T15:38:02.788Z,10.32
2022-09-23T15:40:33.919Z,10.13
2022-09-23T15:43:21.412Z,10.55
2022-09-23T15:45:59.075Z,9.82
2022-09-23T15:48:39.445Z,10.43
2022-09-23T15:51:09.720Z,10.68
2022-09-23T15:53:39.557Z,11.50
2022-09-23T15:56:06.649Z,11.50
2022-09-23T15:58:33.599Z,11.98
2022-09-23T16:01:01.373Z,10.32
2022-09-23T16:03:28.933Z,10.60
2022-09-23T16:06:00.431Z,10.43
2022-09-23T16:08:28.992Z,10.85
2022-09-23T16:10:56.558Z,10.50
2022-09-23T16:13:24.025Z,10.63
2022-09-23T16:15:51.156Z,11.30
2022-09-23T16:18:18.278Z,10.77
2022-09-23T16:20:47.166Z,10.20
2022-09-23T16:23:38.691Z,11.25
2022-09-23T16:26:14.326Z,10.45
2022-09-23T16:28:45.222Z,10.55
2022-09-23T16:31:16.183Z,10.35
2022-09-23T16:33:45.188Z,10.25
2022-09-23T16:36:33.453Z,10.27
2022-09-23T16:39:04.965Z,9.77
2022-09-23T16:41:32.422Z,10.55
2022-09-23T16:44:02.056Z,10.57
2022-09-23T16:46:31.447Z,10.48
2022-09-23T16:48:59.298Z,10.35
2022-09-23T16:51:30.380Z,10.30
2022-09-23T16:53:59.305Z,10.77
2022-09-23T16:56:29.630Z,10.18
2022-09-23T16:58:57.194Z,11.13
2022-09-23T17:01:46.410Z,10.43
2022-09-23T17:04:16.429Z,10.38
2022-09-23T17:06:46.308Z,10.98
2022-09-23T17:09:13.822Z,9.73
2022-09-23T17:11:46.900Z,9.95
2022-09-23T17:14:15.664Z,10.85
2022-09-23T17:16:43.169Z,10.00
2022-09-23T17:19:12.092Z,10.73
2022-09-23T17:21:39.369Z,10.05
2022-09-23T17:24:07.383Z,10.15
2022-09-23T17:26:34.971Z,10.38
2022-09-23T17:29:02.249Z,10.82
2022-09-23T17:31:30.588Z,9.57
2022-09-23T17:33:57.736Z,10.75
2022-09-23T17:36:24.910Z,10.10
2022-09-23T17:38:54.658Z,10.75
2022-09-23T17:41:22.523Z,9.93
2022-09-23T17:43:56.602Z,10.13
2022-09-23T17:46:23.767Z,10.20
2022-09-23T17:48:55.651Z,10.50
2022-09-23T17:51:25.254Z,10.07
2022-09-23T17:53:53.264Z,10.80
2022-09-23T17:56:24.989Z,10.32
2022-09-23T17:58:55.489Z,10.45
2022-09-23T18:01:26.664Z,10.90
2022-09-23T18:03:59.767Z,10.52
2022-09-23T18:06:31.594Z,9.75
2022-09-23T18:09:06.503Z,9.80
2022-09-23T18:11:37.272Z,10.18
2022-09-23T18:14:19.120Z,10.10
2022-09-23T18:16:49.925Z,10.20
2022-09-23T18:19:21.028Z,10.25
2022-09-23T18:21:55.965Z,11.63
2022-09-23T18:24:32.883Z,10.57
2022-09-23T18:27:01.789Z,11.23
2022-09-23T18:29:29.553Z,11.13
2022-09-23T18:31:56.814Z,10.95
2022-09-23T18:34:24.258Z,10.77
2022-09-23T18:36:51.637Z,10.50
2022-09-23T18:39:18.764Z,11.10
2022-09-23T18:41:45.829Z,11.27
2022-09-23T18:44:12.894Z,9.98
2022-09-23T18:46:40.100Z,9.60
2022-09-23T18:49:25.663Z,11.10
2022-09-23T18:51:55.779Z,9.90
2022-09-23T18:54:28.820Z,10.30
2022-09-23T18:56:56.621Z,10.80
2022-09-23T18:59:28.027Z,10.73
2022-09-23T19:01:56.012Z,11.10
2022-09-23T19:04:24.784Z,11.10
2022-09-23T19:06:52.076Z,11.73
2022-09-23T19:09:19.442Z,12.05
2022-09-23T19:11:46.644Z,11.13
2022-09-23T19:14:14.266Z,10.90
2022-09-23T19:16:41.689Z,11.05
2022-09-23T19:19:09.338Z,11.80
2022-09-23T19:21:38.902Z,11.73
2022-09-23T19:24:08.153Z,12.57
2022-09-23T19:26:39.171Z,12.43
2022-09-23T19:29:11.495Z,12.52
2022-09-23T19:31:40.004Z,12.88
2022-09-23T19:34:19.657Z,13.85
2022-09-23T19:36:47.954Z,13.52
2022-09-23T19:39:24.358Z,13.48
2022-09-23T19:41:54.446Z,13.77
2022-09-23T19:44:24.054Z,13.05
2022-09-23T19:46:56.042Z,13.80
2022-09-23T19:49:25.436Z,13.25
2022-09-23T19:51:55.484Z,14.77
2022-09-23T19:54:26.478Z,13.88
2022-09-23T19:56:53.589Z,13.70
2022-09-23T19:59:20.804Z,13.23
2022-09-23T20:01:48.621Z,13.55
2022-09-23T20:04:16.927Z,13.13
2022-09-23T20:06:45.789Z,12.80
2022-09-23T20:09:12.886Z,13.07
2022-09-23T20:11:44.042Z,13.23
2022-09-23T20:14:11.988Z,12.63
2022-09-23T20:16:39.226Z,13.80
2022-09-23T20:19:06.464Z,14.05
2022-09-23T20:21:35.276Z,14.52
2022-09-23T20:24:05.648Z,14.23
2022-09-23T20:26:52.153Z,14.27
2022-09-23T20:31:46.432Z,14.57
2022-09-23T20:34:13.600Z,15.15
2022-09-23T20:36:41.691Z,15.82
2022-09-23T20:39:10.090Z,14.38
2022-09-23T20:41:39.217Z,14.70
2022-09-23T20:44:12.189Z,14.80
2022-09-23T20:46:46.989Z,15.40
2022-09-23T20:49:16.934Z,14.82
2022-09-23T20:51:44.755Z,13.82
2022-09-23T20:54:12.219Z,14.43
2022-09-23T20:56:39.534Z,14.57
2022-09-23T20:59:06.673Z,14.68
2022-09-23T21:01:35.464Z,15.18
2022-09-23T21:04:07.906Z,15.15
2022-09-23T21:06:36.685Z,16.08
2022-09-23T21:09:05.099Z,16.30
2022-09-23T21:11:32.558Z,16.77
2022-09-23T21:14:02.485Z,17.63
2022-09-23T21:16:30.479Z,17.60
2022-09-23T21:18:58.604Z,17.58
2022-09-23T21:21:26.229Z,17.27
2022-09-23T21:23:53.209Z,17.98
2022-09-23T21:26:26.009Z,18.83
2022-09-23T21:28:59.488Z,18.33
2022-09-23T21:31:33.484Z,18.92
2022-09-23T21:34:05.663Z,19.15
2022-09-23T21:36:37.081Z,18.48
2022-09-23T21:39:09.293Z,19.02
2022-09-23T21:41:37.078Z,19.25
2022-09-23T21:44:05.043Z,18.63
2022-09-23T21:46:33.803Z,18.88
2022-09-23T21:49:03.296Z,19.50
2022-09-23T21:51:37.772Z,19.08
2022-09-23T21:54:05.678Z,18.77
2022-09-23T21:56:36.292Z,19.05
2022-09-23T21:59:04.040Z,19.63
2022-09-23T22:01:37.580Z,19.83
2022-09-23T22:04:13.693Z,19.80
2022-09-23T22:06:41.611Z,20.05
2022-09-23T22:09:12.996Z,20.98
2022-09-23T22:11:59.996Z,21.23
2022-09-23T22:14:27.788Z,21.63
2022-09-23T22:16:58.881Z,21.42
2022-09-23T22:19:44.303Z,20.67
2022-09-23T22:22:16.362Z,21.15
2022-09-23T22:24:46.141Z,22.25
2022-09-23T22:27:16.234Z,22.45
2022-09-23T22:30:02.019Z,22.15
2022-09-23T22:32:41.008Z,21.17
2022-09-23T22:35:19.205Z,22.80
2022-09-23T22:37:47.339Z,22.85
2022-09-23T22:40:16.244Z,21.52
2022-09-23T22:42:44.136Z,22.48
2022-09-23T22:45:12.406Z,23.33
2022-09-23T22:47:44.000Z,22.98
2022-09-23T22:50:13.928Z,23.52
2022-09-23T22:52:41.128Z,23.40
2022-09-23T22:55:08.869Z,24.23
2022-09-23T22:57:36.819Z,22.67
2022-09-23T23:00:06.443Z,23.13
2022-09-23T23:02:33.533Z,24.35
2022-09-23T23:05:00.924Z,24.00
2022-09-23T23:07:27.995Z,25.23
2022-09-23T23:09:55.550Z,25.48
2022-09-23T23:12:22.679Z,24.45
2022-09-23T23:14:50.137Z,25.48
2022-09-23T23:17:18.659Z,25.83
2022-09-23T23:19:45.991Z,26.77
2022-09-23T23:22:13.050Z,25.92
2022-09-23T23:24:40.116Z,27.65
2022-09-23T23:27:07.050Z,26.23
2022-09-23T23:29:34.006Z,26.05
2022-09-23T23:32:01.337Z,27.45
2022-09-23T23:34:28.496Z,26.48
2022-09-23T23:36:55.672Z,26.70
2022-09-23T23:39:24.901Z,26.90
2022-09-23T23:41:56.837Z,26.85
2022-09-23T23:44:26.397Z,27.70
2022-09-23T23:46:54.539Z,26.52
2022-09-23T23:49:21.947Z,26.70
2022-09-23T23:51:49.295Z,27.83
2022-09-23T23:54:16.529Z,27.95
2022-09-23T23:56:43.778Z,28.42
2022-09-23T23:59:11.235Z,29.30
